Time;durP1;ratioP1;P1;durP2;ratioP2;P2;SDS_P1;SDS_P2;PMS_P1;PMS_P2;Temp;Humidity;BMP_temperature;BMP_pressure;BME280_temperature;BME280_humidity;BME280_pressure;Samples;Min_cycle;Max_cycle;Signal;HPM_P1;HPM_P2
2021/07/10 00:00:41;;;;;;;2.45;1.20;;;;;;;17.64;74.13;100522.36;127622;1101;22380;-80
2021/07/10 00:03:20;;;;;;;1.50;1.10;;;;;;;17.62;74.55;100521.73;127635;1101;22401;-81
2021/07/10 00:05:49;;;;;;;2.33;1.20;;;;;;;17.61;74.47;100530.80;127975;1101;22478;-80
2021/07/10 00:08:19;;;;;;;3.08;1.10;;;;;;;17.58;74.16;100527.72;127949;1100;22411;-80
2021/07/10 00:10:49;;;;;;;2.43;1.10;;;;;;;17.53;73.94;100527.55;128004;1098;25076;-80
2021/07/10 00:13:18;;;;;;;1.43;1.18;;;;;;;17.47;74.16;100531.86;128039;1098;24498;-81
2021/07/10 00:15:48;;;;;;;10.63;1.10;;;;;;;17.43;74.10;100522.63;128028;1098;22475;-81
2021/07/10 00:18:18;;;;;;;4.95;4.10;;;;;;;17.41;73.93;100530.83;128051;1098;22379;-81
2021/07/10 00:20:49;;;;;;;4.90;1.10;;;;;;;17.40;74.01;100525.72;128085;1098;24524;-79
2021/07/10 00:23:19;;;;;;;3.28;1.00;;;;;;;17.38;74.07;100533.10;128016;1098;22474;-80
2021/07/10 00:25:48;;;;;;;4.30;0.80;;;;;;;17.38;73.71;100535.77;128049;1098;24202;-80
2021/07/10 00:28:18;;;;;;;5.43;1.20;;;;;;;17.33;73.96;100539.08;128023;1098;22396;-81
2021/07/10 00:30:47;;;;;;;3.55;0.95;;;;;;;17.33;73.64;100535.59;128037;1098;22376;-81
2021/07/10 00:33:17;;;;;;;2.70;0.80;;;;;;;17.33;73.67;100540.93;127989;1098;22391;-80
2021/07/10 00:35:47;;;;;;;5.30;1.35;;;;;;;17.30;73.28;100547.50;128038;1098;22841;-79
2021/07/10 00:38:17;;;;;;;1.93;0.78;;;;;;;17.29;73.31;100542.34;128014;1098;22395;-79
2021/07/10 00:40:46;;;;;;;3.48;0.93;;;;;;;17.30;73.31;100557.36;128094;1098;22410;-80
2021/07/10 00:43:16;;;;;;;4.30;1.70;;;;;;;17.29;73.47;100561.04;128017;1098;22372;-80
2021/07/10 00:45:47;;;;;;;4.50;1.05;;;;;;;17.27;73.21;100563.93;128069;1098;22413;-81
2021/07/10 00:48:17;;;;;;;2.93;0.75;;;;;;;17.24;73.28;100561.67;128011;1098;22372;-81
2021/07/10 00:50:48;;;;;;;1.95;0.80;;;;;;;17.24;73.16;100553.66;128034;1098;22696;-80
2021/07/10 00:53:17;;;;;;;1.43;0.80;;;;;;;17.22;73.14;100542.36;128028;1098;22391;-80
2021/07/10 00:55:47;;;;;;;4.43;0.70;;;;;;;17.17;72.93;100545.66;128024;1098;22391;-79
2021/07/10 00:58:17;;;;;;;1.63;0.80;;;;;;;17.19;73.51;100548.11;128062;1098;22369;-80
2021/07/10 01:00:46;;;;;;;2.50;0.63;;;;;;;17.23;73.27;100549.36;128065;1098;22832;-80
2021/07/10 01:03:16;;;;;;;5.48;0.73;;;;;;;17.26;73.42;100538.27;128052;1098;22377;-80
2021/07/10 01:05:46;;;;;;;2.75;0.90;;;;;;;17.28;73.12;100544.20;128060;1098;22375;-80
2021/07/10 01:08:15;;;;;;;2.18;0.80;;;;;;;17.28;73.07;100533.52;128093;1098;22402;-80
2021/07/10 01:10:45;;;;;;;3.05;1.40;;;;;;;17.29;73.15;100526.33;128090;1098;22375;-80
2021/07/10 01:13:16;;;;;;;3.13;0.88;;;;;;;17.31;72.97;100522.43;128203;1097;22388;-80
2021/07/10 01:15:46;;;;;;;2.95;0.70;;;;;;;17.31;73.31;100525.10;127994;1098;22375;-78
2021/07/10 01:18:15;;;;;;;3.07;1.13;;;;;;;17.31;73.13;100521.61;128225;1098;22391;-80
2021/07/10 01:20:50;;;;;;;1.60;0.90;;;;;;;17.32;72.94;100523.25;128007;1098;24286;-81
2021/07/10 01:23:22;;;;;;;3.13;1.00;;;;;;;17.30;72.79;100527.99;128088;1098;22462;-80
2021/07/10 01:25:53;;;;;;;2.20;1.40;;;;;;;17.26;72.87;100518.73;128080;1098;24560;-81
2021/07/10 01:28:23;;;;;;;4.50;1.30;;;;;;;17.22;72.44;100538.87;128084;1097;22414;-79
2021/07/10 01:30:53;;;;;;;4.50;1.45;;;;;;;17.16;72.88;100533.34;128062;1098;22408;-79
2021/07/10 01:33:23;;;;;;;6.18;1.30;;;;;;;17.14;73.02;100538.06;128028;1098;24247;-78
2021/07/10 01:35:52;;;;;;;1.58;1.10;;;;;;;17.11;72.85;100540.32;128189;1098;24525;-78
2021/07/10 01:38:22;;;;;;;3.28;1.10;;;;;;;17.09;72.82;100545.03;128025;1098;22375;-79
2021/07/10 01:40:52;;;;;;;1.60;1.00;;;;;;;17.05;73.09;100546.48;128012;1098;22396;-79
2021/07/10 01:43:21;;;;;;;7.03;1.10;;;;;;;17.07;73.28;100553.26;128204;1098;22376;-79
2021/07/10 01:45:51;;;;;;;2.63;1.30;;;;;;;17.11;73.24;100565.16;127976;1098;22403;-79
2021/07/10 01:48:21;;;;;;;2.90;1.10;;;;;;;17.09;72.98;100556.55;127990;1098;23145;-78
2021/07/10 01:50:50;;;;;;;4.55;1.13;;;;;;;17.13;73.31;100557.78;128192;1098;24524;-79
2021/07/10 01:53:20;;;;;;;2.53;1.20;;;;;;;17.15;73.25;100560.23;128006;1098;22832;-79
2021/07/10 01:55:49;;;;;;;1.80;0.90;;;;;;;17.15;73.21;100569.05;128195;1098;24265;-79
2021/07/10 01:58:19;;;;;;;2.50;1.48;;;;;;;17.15;73.01;100569.05;127996;1098;24515;-79
2021/07/10 02:00:49;;;;;;;1.85;1.30;;;;;;;17.19;72.95;100574.80;127990;1098;22383;-79
2021/07/10 02:03:18;;;;;;;3.03;1.58;;;;;;;17.18;72.86;100573.98;127978;1098;22390;-79
2021/07/10 02:05:48;;;;;;;2.83;1.18;;;;;;;17.20;72.95;100580.98;128052;1097;22383;-79
2021/07/10 02:08:17;;;;;;;4.78;1.55;;;;;;;17.19;72.84;100588.15;128036;1098;22371;-80
2021/07/10 02:10:47;;;;;;;1.83;1.00;;;;;;;17.16;72.69;100593.92;127945;1098;22376;-78
2021/07/10 02:13:17;;;;;;;4.08;1.30;;;;;;;17.14;72.83;100583.44;127975;1098;24521;-78
2021/07/10 02:15:47;;;;;;;4.70;1.40;;;;;;;17.14;72.93;100583.44;128002;1098;23222;-78
2021/07/10 02:18:16;;;;;;;1.25;0.93;;;;;;;17.14;72.90;100586.11;128017;1098;22394;-78
2021/07/10 02:20:46;;;;;;;3.38;1.33;;;;;;;17.16;72.93;100588.59;127941;1098;22374;-77
2021/07/10 02:23:15;;;;;;;1.78;1.20;;;;;;;17.17;72.71;100584.88;127945;1098;22397;-78
2021/07/10 02:25:45;;;;;;;3.13;1.35;;;;;;;17.16;72.41;100597.41;128236;1098;24212;-78
2021/07/10 02:28:14;;;;;;;2.98;1.13;;;;;;;17.16;72.65;100597.41;128196;1098;22380;-78
2021/07/10 02:30:44;;;;;;;2.15;1.40;;;;;;;17.17;72.67;100593.70;128023;1098;22672;-78
2021/07/10 02:33:15;;;;;;;3.35;2.28;;;;;;;17.17;72.47;100592.89;127977;1098;25274;-78
2021/07/10 02:35:45;;;;;;;3.48;2.20;;;;;;;17.13;72.07;100595.15;128226;1098;24537;-80
2021/07/10 02:38:16;;;;;;;3.83;1.45;;;;;;;17.13;72.42;100595.15;127982;1098;22382;-80
2021/07/10 02:40:45;;;;;;;1.77;1.40;;;;;;;17.15;72.57;100592.27;127985;1098;22391;-80
2021/07/10 02:43:15;;;;;;;2.50;1.58;;;;;;;17.16;72.44;100588.59;127910;1101;22381;-80
2021/07/10 02:45:45;;;;;;;3.80;1.30;;;;;;;17.20;72.54;100583.66;127482;1101;22460;-80
2021/07/10 02:48:15;;;;;;;2.98;2.13;;;;;;;17.20;72.63;100578.31;127935;1101;22382;-80
2021/07/10 02:50:45;;;;;;;2.18;1.20;;;;;;;17.17;72.11;100587.55;127995;1101;22445;-78
2021/07/10 02:53:15;;;;;;;7.83;2.00;;;;;;;17.17;72.71;100580.36;127883;1101;23167;-79
2021/07/10 02:55:44;;;;;;;1.90;1.30;;;;;;;17.25;72.48;100583.84;127901;1101;22393;-79
2021/07/10 02:58:15;;;;;;;4.90;1.50;;;;;;;17.28;72.42;100589.59;127957;1101;22708;-79
2021/07/10 03:00:45;;;;;;;2.50;1.40;;;;;;;17.25;72.54;100578.50;127659;1098;24352;-79
2021/07/10 03:03:14;;;;;;;5.93;1.40;;;;;;;17.23;72.20;100570.72;128260;1098;22374;-80
2021/07/10 03:05:44;;;;;;;3.00;1.30;;;;;;;17.24;72.51;100575.02;128178;1098;25778;-80
2021/07/10 03:08:13;;;;;;;4.15;1.60;;;;;;;17.27;72.88;100566.60;128051;1098;22376;-81
2021/07/10 03:10:43;;;;;;;3.35;1.35;;;;;;;17.29;72.28;100575.20;128015;1098;22682;-81
2021/07/10 03:13:13;;;;;;;2.75;1.73;;;;;;;17.30;72.37;100573.38;128017;1098;24514;-81
2021/07/10 03:15:43;;;;;;;4.40;1.90;;;;;;;17.30;72.58;100568.05;127989;1098;22362;-81
2021/07/10 03:18:12;;;;;;;4.20;1.45;;;;;;;17.30;72.30;100576.05;128193;1098;22398;-81
2021/07/10 03:20:42;;;;;;;3.53;1.70;;;;;;;17.31;72.40;100572.34;127952;1098;24524;-80
2021/07/10 03:23:11;;;;;;;4.15;1.30;;;;;;;17.32;72.48;100565.97;128155;1098;22363;-80
2021/07/10 03:25:43;;;;;;;4.38;1.80;;;;;;;17.32;72.08;100572.13;128006;1098;24265;-79
2021/07/10 03:28:15;;;;;;;4.80;1.27;;;;;;;17.29;71.98;100569.87;127991;1098;22379;-78
2021/07/10 03:30:51;;;;;;;1.83;1.20;;;;;;;17.25;71.74;100573.98;127576;1101;24279;-79
2021/07/10 03:33:23;;;;;;;3.43;1.28;;;;;;;17.21;71.98;100570.09;127486;1101;22273;-78
2021/07/10 03:35:52;;;;;;;2.50;1.00;;;;;;;17.22;72.45;100577.06;127544;1101;22401;-80
2021/07/10 03:38:22;;;;;;;4.35;1.70;;;;;;;17.21;72.16;100583.44;127561;1101;22385;-80
2021/07/10 03:40:52;;;;;;;2.33;1.33;;;;;;;17.24;72.41;100575.02;127883;1101;22417;-80
2021/07/10 03:43:21;;;;;;;3.68;1.00;;;;;;;17.27;72.60;100581.80;127582;1101;22414;-80
2021/07/10 03:45:52;;;;;;;3.75;1.63;;;;;;;17.28;72.48;100578.91;127512;1101;22462;-79
2021/07/10 03:48:23;;;;;;;;;;;;;;;17.22;71.83;100590.41;127998;1098;22496;-80
2021/07/10 03:50:52;;;;;;;2.50;1.45;;;;;;;17.18;72.58;100583.84;128007;1098;23141;-79
2021/07/10 03:53:22;;;;;;;3.05;1.10;;;;;;;17.22;72.51;100585.07;128193;1098;22375;-80
2021/07/10 03:55:51;;;;;;;1.50;0.98;;;;;;;17.24;72.51;100583.03;128207;1098;22363;-80
2021/07/10 03:58:21;;;;;;;2.98;1.40;;;;;;;17.26;72.60;100589.00;127987;1098;22391;-80
2021/07/10 04:00:50;;;;;;;2.50;0.80;;;;;;;17.29;72.59;100593.08;128212;1098;22388;-79
2021/07/10 04:03:20;;;;;;;3.65;1.20;;;;;;;17.28;72.27;100589.59;128101;1098;22391;-79
2021/07/10 04:05:50;;;;;;;2.55;1.03;;;;;;;17.29;72.86;100601.09;128059;1098;22361;-79
2021/07/10 04:08:19;;;;;;;1.78;1.13;;;;;;;17.32;72.38;100606.02;128230;1098;25242;-80
2021/07/10 04:10:49;;;;;;;3.20;1.10;;;;;;;17.33;72.25;100602.34;128085;1098;22703;-80
2021/07/10 04:13:19;;;;;;;3.55;1.50;;;;;;;17.33;72.41;100605.83;128294;1098;22376;-80
2021/07/10 04:15:48;;;;;;;4.58;1.28;;;;;;;17.32;72.32;100606.02;128060;1098;22385;-79
2021/07/10 04:18:18;;;;;;;5.45;1.60;;;;;;;17.33;72.24;100613.02;128014;1098;22509;-80
2021/07/10 04:20:47;;;;;;;1.63;1.27;;;;;;;17.29;71.87;100604.58;128264;1098;22392;-80
2021/07/10 04:23:17;;;;;;;3.20;1.18;;;;;;;17.23;72.23;100613.43;128274;1098;24515;-79
2021/07/10 04:25:47;;;;;;;1.30;1.08;;;;;;;17.23;72.14;100613.43;128090;1098;22379;-79
2021/07/10 04:28:17;;;;;;;3.38;1.40;;;;;;;17.22;72.13;100614.44;128226;1098;22399;-79
2021/07/10 04:30:47;;;;;;;3.15;1.45;;;;;;;17.23;72.45;100618.77;128254;1098;22372;-80
2021/07/10 04:33:17;;;;;;;1.73;0.98;;;;;;;17.24;72.31;100615.06;128090;1098;22372;-80
2021/07/10 04:35:46;;;;;;;3.20;1.40;;;;;;;17.24;72.51;100615.06;128052;1098;22372;-80
2021/07/10 04:38:16;;;;;;;3.30;1.43;;;;;;;17.28;72.39;100618.96;128071;1098;22395;-80
2021/07/10 04:40:45;;;;;;;2.95;1.50;;;;;;;17.32;72.24;100617.52;128065;1098;22375;-79
2021/07/10 04:43:15;;;;;;;3.38;1.15;;;;;;;17.35;72.08;100611.77;128117;1098;22383;-80
2021/07/10 04:45:45;;;;;;;2.15;1.45;;;;;;;17.36;72.08;100612.59;128014;1098;23151;-80
2021/07/10 04:48:14;;;;;;;3.48;1.65;;;;;;;17.37;72.34;100615.06;128056;1098;22374;-79
2021/07/10 04:50:44;;;;;;;3.08;1.65;;;;;;;17.37;72.33;100611.58;128006;1098;22378;-79
2021/07/10 04:53:14;;;;;;;3.98;1.68;;;;;;;17.40;72.30;100608.50;128079;1098;22372;-79
2021/07/10 04:55:43;;;;;;;2.60;1.30;;;;;;;17.44;72.28;100606.23;127973;1098;22364;-79
2021/07/10 04:58:14;;;;;;;4.58;1.93;;;;;;;17.48;72.61;100600.27;128013;1098;22392;-79
2021/07/10 05:00:44;;;;;;;3.90;1.28;;;;;;;17.49;72.30;100606.42;128203;1098;22382;-79
2021/07/10 05:03:14;;;;;;;2.85;1.10;;;;;;;17.52;72.13;100609.50;127967;1101;22396;-80
2021/07/10 05:05:43;;;;;;;3.55;1.13;;;;;;;17.49;72.08;100609.91;127544;1101;25046;-81
2021/07/10 05:08:13;;;;;;;2.28;1.15;;;;;;;17.49;72.17;100611.77;127901;1101;22375;-79
2021/07/10 05:10:44;;;;;;;2.00;1.20;;;;;;;17.54;72.15;100615.47;127939;1101;22391;-79
2021/07/10 05:13:13;;;;;;;1.70;1.27;;;;;;;17.58;71.91;100623.88;127893;1101;22421;-79
2021/07/10 05:15:43;;;;;;;3.65;1.58;;;;;;;17.57;71.95;100625.73;127930;1101;24521;-78
2021/07/10 05:18:13;;;;;;;3.68;1.48;;;;;;;17.52;71.52;100638.06;128038;1101;22388;-78
2021/07/10 05:20:42;;;;;;;1.63;1.00;;;;;;;17.46;71.84;100623.70;127939;1098;24515;-79
2021/07/10 05:23:12;;;;;;;4.85;1.80;;;;;;;17.46;71.92;100630.87;127959;1098;22373;-78
2021/07/10 05:25:41;;;;;;;4.28;1.33;;;;;;;17.48;72.09;100628.83;127924;1098;22379;-79
2021/07/10 05:28:11;;;;;;;1.63;1.20;;;;;;;17.54;71.99;100631.49;127920;1101;22415;-79
2021/07/10 05:30:41;;;;;;;4.08;1.18;;;;;;;17.61;71.58;100642.98;127930;1101;22381;-78
2021/07/10 05:33:10;;;;;;;1.73;1.10;;;;;;;17.63;71.68;100642.80;127889;1101;24531;-78
2021/07/10 05:35:39;;;;;;;5.80;1.50;;;;;;;17.65;71.63;100643.39;127886;1099;22385;-81
2021/07/10 05:38:09;;;;;;;1.73;0.90;;;;;;;17.68;71.34;100640.31;127888;1100;24530;-78
2021/07/10 05:40:40;;;;;;;5.10;0.95;;;;;;;17.67;71.21;100638.68;127484;1101;22878;-79
2021/07/10 05:43:10;;;;;;;4.40;1.10;;;;;;;17.69;71.26;100641.13;127911;1101;23167;-80
2021/07/10 05:45:40;;;;;;;1.68;0.93;;;;;;;17.69;71.29;100649.14;127595;1099;22395;-80
2021/07/10 05:48:09;;;;;;;2.28;1.30;;;;;;;17.73;71.27;100651.22;128003;1098;22388;-79
2021/07/10 05:50:39;;;;;;;1.10;0.95;;;;;;;17.77;71.31;100655.14;127981;1098;22375;-79
2021/07/10 05:53:09;;;;;;;1.33;1.00;;;;;;;17.80;70.93;100653.91;128038;1098;22399;-79
2021/07/10 05:55:39;;;;;;;5.38;2.08;;;;;;;17.80;70.86;100651.23;128018;1098;22379;-79
2021/07/10 05:58:09;;;;;;;1.63;1.28;;;;;;;17.82;70.86;100652.65;128182;1098;22375;-79
2021/07/10 06:00:39;;;;;;;1.80;1.25;;;;;;;17.91;70.85;100650.59;128005;1098;22375;-80
2021/07/10 06:03:08;;;;;;;2.55;1.00;;;;;;;18.01;71.00;100660.86;128019;1098;22403;-79
2021/07/10 06:05:38;;;;;;;0.90;0.75;;;;;;;18.09;70.54;100656.12;127979;1098;22379;-79
2021/07/10 06:08:07;;;;;;;5.70;1.38;;;;;;;18.12;69.81;100652.17;128008;1098;22394;-80
2021/07/10 06:10:37;;;;;;;2.28;1.20;;;;;;;18.04;69.46;100663.93;127984;1098;22394;-78
2021/07/10 06:13:07;;;;;;;1.80;1.10;;;;;;;17.98;69.90;100666.61;127953;1098;22407;-79
2021/07/10 06:15:36;;;;;;;2.93;1.20;;;;;;;17.97;70.17;100673.00;127952;1098;22825;-77
2021/07/10 06:18:07;;;;;;;5.45;1.88;;;;;;;17.97;69.72;100667.66;128184;1098;22378;-82
2021/07/10 06:20:37;;;;;;;3.10;1.10;;;;;;;17.96;69.96;100666.84;127963;1098;22377;-79
2021/07/10 06:23:08;;;;;;;7.50;1.30;;;;;;;17.97;70.21;100663.13;127946;1098;22376;-79
2021/07/10 06:25:38;;;;;;;2.13;1.38;;;;;;;18.00;69.98;100669.91;128033;1098;22394;-79
2021/07/10 06:28:08;;;;;;;4.03;1.23;;;;;;;18.01;69.90;100679.56;128013;1098;22379;-79
2021/07/10 06:30:38;;;;;;;2.35;1.20;;;;;;;18.02;69.94;100682.02;127946;1098;22378;-80
2021/07/10 06:33:07;;;;;;;4.88;0.98;;;;;;;18.04;70.06;100682.64;128152;1096;22396;-80
2021/07/10 06:35:37;;;;;;;4.75;4.23;;;;;;;18.08;70.18;100686.53;128102;1098;22369;-80
2021/07/10 06:38:06;;;;;;;5.63;1.30;;;;;;;18.16;69.98;100682.84;127947;1098;22376;-80
2021/07/10 06:40:36;;;;;;;2.78;1.30;;;;;;;18.25;69.97;100683.41;127964;1098;24289;-80
2021/07/10 06:43:06;;;;;;;2.23;1.60;;;;;;;18.23;69.27;100680.96;127957;1098;22393;-79
2021/07/10 06:45:35;;;;;;;2.33;1.35;;;;;;;18.27;69.20;100684.85;127966;1098;22388;-79
2021/07/10 06:48:06;;;;;;;3.55;2.10;;;;;;;18.29;68.82;100688.15;128021;1098;22400;-80
2021/07/10 06:50:35;;;;;;;3.55;1.38;;;;;;;18.27;69.20;100692.06;128202;1097;22391;-79
2021/07/10 06:53:05;;;;;;;2.03;1.40;;;;;;;18.29;68.98;100689.98;128044;1098;22392;-79
2021/07/10 06:55:35;;;;;;;3.20;1.23;;;;;;;18.30;69.36;100692.45;128091;1098;22439;-79
2021/07/10 06:58:04;;;;;;;3.95;1.38;;;;;;;18.32;68.95;100698.40;127925;1098;24348;-79
2021/07/10 07:00:34;;;;;;;2.70;1.18;;;;;;;18.34;69.16;100709.72;127964;1098;23155;-79
2021/07/10 07:03:03;;;;;;;1.53;1.28;;;;;;;18.32;68.94;100701.07;128205;1098;22404;-80
2021/07/10 07:05:33;;;;;;;6.65;1.53;;;;;;;18.27;69.03;100711.59;127959;1098;22392;-79
2021/07/10 07:08:03;;;;;;;3.08;1.50;;;;;;;18.25;68.66;100718.99;128009;1098;22373;-80
2021/07/10 07:10:33;;;;;;;3.20;1.60;;;;;;;18.21;69.02;100722.30;128228;1098;22391;-79
2021/07/10 07:13:02;;;;;;;4.45;1.78;;;;;;;18.20;69.03;100726.02;128184;1098;22373;-80
2021/07/10 07:15:32;;;;;;;7.30;2.60;;;;;;;18.16;69.01;100725.62;128188;1098;22369;-79
2021/07/10 07:18:02;;;;;;;4.18;1.75;;;;;;;18.13;68.69;100720.68;128219;1098;22372;-79
2021/07/10 07:20:32;;;;;;;19.38;2.80;;;;;;;18.13;69.15;100720.68;128208;1098;22388;-79
2021/07/10 07:23:02;;;;;;;2.87;1.40;;;;;;;18.16;68.74;100724.77;128183;1098;22375;-77
2021/07/10 07:25:34;;;;;;;4.93;1.90;;;;;;;18.15;69.25;100721.28;128152;1098;22385;-75
2021/07/10 07:28:04;;;;;;;5.43;2.43;;;;;;;18.20;69.38;100724.16;128144;1098;22377;-76
2021/07/10 07:30:34;;;;;;;3.38;2.00;;;;;;;18.28;69.74;100713.23;128012;1098;22372;-75
2021/07/10 07:33:04;;;;;;;5.38;2.63;;;;;;;18.42;69.48;100721.22;128026;1098;22381;-75
2021/07/10 07:35:34;;;;;;;2.50;2.10;;;;;;;18.52;69.36;100716.24;128159;1097;23136;-78
2021/07/10 07:38:03;;;;;;;12.63;2.78;;;;;;;18.65;69.17;100718.88;128003;1098;22391;-77
2021/07/10 07:40:33;;;;;;;2.70;2.28;;;;;;;18.79;68.61;100719.66;127938;1098;22397;-75
2021/07/10 07:43:03;;;;;;;3.28;2.40;;;;;;;18.94;68.56;100717.55;127976;1098;24272;-76
2021/07/10 07:45:33;;;;;;;4.13;2.67;;;;;;;19.05;67.69;100724.07;127940;1098;22360;-75
2021/07/10 07:48:04;;;;;;;3.28;1.70;;;;;;;19.21;67.70;100723.56;127943;1098;22374;-75
2021/07/10 07:50:34;;;;;;;4.58;1.80;;;;;;;19.38;67.33;100723.05;128175;1098;23331;-75
2021/07/10 07:53:03;;;;;;;3.18;2.40;;;;;;;19.51;66.76;100723.78;127972;1098;22433;-75
2021/07/10 07:55:34;;;;;;;6.58;2.30;;;;;;;19.58;66.27;100730.95;127943;1098;22387;-75
2021/07/10 07:58:05;;;;;;;3.28;1.65;;;;;;;19.63;65.76;100731.13;128134;1097;22403;-75
2021/07/10 08:00:35;;;;;;;4.90;2.10;;;;;;;19.63;65.41;100728.45;127994;1098;22377;-74
2021/07/10 08:03:05;;;;;;;2.98;1.93;;;;;;;19.63;65.24;100731.13;128002;1098;24202;-75
2021/07/10 08:05:34;;;;;;;5.58;2.53;;;;;;;19.66;65.25;100734.23;128046;1098;22407;-76
2021/07/10 08:08:05;;;;;;;11.55;2.68;;;;;;;19.73;65.52;100731.49;128168;1098;22481;-75
2021/07/10 08:10:35;;;;;;;3.25;2.05;;;;;;;19.92;65.53;100738.52;127982;1098;22391;-75
2021/07/10 08:13:05;;;;;;;5.17;1.97;;;;;;;20.11;64.80;100736.70;128188;1098;22388;-76
2021/07/10 08:15:35;;;;;;;3.00;2.28;;;;;;;20.28;64.39;100726.22;128034;1098;22369;-76
2021/07/10 08:18:05;;;;;;;2.35;2.15;;;;;;;20.31;63.30;100733.01;128260;1097;22391;-76
2021/07/10 08:20:35;;;;;;;6.85;2.50;;;;;;;20.21;62.53;100739.70;127987;1098;22373;-75
2021/07/10 08:23:06;;;;;;;3.20;2.90;;;;;;;20.09;63.08;100738.81;128052;1098;23262;-74
2021/07/10 08:25:36;;;;;;;3.85;2.13;;;;;;;20.04;63.13;100745.86;128116;1098;22376;-74
2021/07/10 08:28:05;;;;;;;4.33;2.08;;;;;;;19.99;63.28;100741.14;128201;1098;22369;-74
2021/07/10 08:30:35;;;;;;;4.58;2.10;;;;;;;19.99;63.11;100754.55;128081;1098;22369;-76
2021/07/10 08:33:05;;;;;;;4.20;2.13;;;;;;;19.98;62.90;100756.42;128062;1098;22396;-76
2021/07/10 08:35:34;;;;;;;8.13;2.68;;;;;;;20.02;63.16;100759.48;128049;1098;24266;-76
2021/07/10 08:38:06;;;;;;;;;;;;;;;19.97;62.37;100756.66;128347;1098;22376;-76
2021/07/10 08:40:36;;;;;;;3.73;2.13;;;;;;;19.93;62.78;100760.81;128067;1098;21579;-76
2021/07/10 08:43:06;;;;;;;6.13;2.93;;;;;;;19.83;62.36;100758.63;128033;1098;22379;-75
2021/07/10 08:45:38;;;;;;;8.15;2.83;;;;;;;19.80;63.20;100753.70;127947;1098;25729;-76
2021/07/10 08:48:08;;;;;;;6.30;2.40;;;;;;;19.83;63.16;100763.98;127984;1098;22372;-76
2021/07/10 08:50:37;;;;;;;3.85;2.40;;;;;;;19.81;63.06;100755.33;128041;1098;23154;-75
2021/07/10 08:53:07;;;;;;;3.70;2.40;;;;;;;19.84;63.24;100754.08;128199;1098;22378;-77
2021/07/10 08:55:37;;;;;;;5.53;2.58;;;;;;;19.85;63.25;100763.75;127991;1098;22756;-76
2021/07/10 08:58:07;;;;;;;5.48;2.68;;;;;;;19.80;62.89;100760.92;128201;1098;24278;-76
2021/07/10 09:00:40;;;;;;;4.18;2.78;;;;;;;19.74;63.10;100759.93;128235;1098;22375;-76
2021/07/10 09:03:09;;;;;;;4.78;2.90;;;;;;;19.67;63.02;100753.80;128267;1098;22391;-76
2021/07/10 09:05:40;;;;;;;4.98;2.75;;;;;;;19.78;64.15;100762.99;128233;1098;24250;-76
2021/07/10 09:08:16;;;;;;;3.63;2.83;;;;;;;20.09;64.15;100754.90;128065;1098;22391;-76
2021/07/10 09:10:51;;;;;;;6.50;3.55;;;;;;;20.41;63.41;100758.27;128166;1098;25030;-75
2021/07/10 09:13:40;;;;;;;4.55;2.75;;;;;;;20.68;62.70;100758.83;128347;1097;22439;-75
2021/07/10 09:16:16;;;;;;;4.30;2.08;;;;;;;20.93;61.74;100747.19;128005;1098;22391;-76
2021/07/10 09:18:53;;;;;;;6.48;3.43;;;;;;;21.12;60.92;100754.14;128228;1098;22391;-75
2021/07/10 09:21:52;;;;;;;5.08;3.60;;;;;;;21.33;60.45;100750.14;127992;1098;22821;-75
2021/07/10 09:24:32;;;;;;;8.63;2.88;;;;;;;21.47;59.75;100756.17;128163;1098;24521;-74
2021/07/10 09:27:08;;;;;;;5.73;3.68;;;;;;;21.67;59.83;100746.98;128005;1098;22372;-74
2021/07/10 09:29:48;;;;;;;4.43;3.15;;;;;;;22.02;59.75;100755.88;128001;1098;22376;-75
2021/07/10 09:34:43;;;;;;;6.73;4.35;;;;;;;22.86;58.19;100757.44;129111;1092;22334;-76
2021/07/10 09:37:15;;;;;;;2.45;2.10;;;;;;;23.37;56.78;100756.56;128733;1092;22391;-75
2021/07/10 09:40:13;;;;;;;4.45;2.38;;;;;;;23.70;55.94;100758.50;128644;1092;22331;-75
2021/07/10 09:42:45;;;;;;;4.50;1.90;;;;;;;24.10;54.82;100760.20;128664;1091;24202;-74
2021/07/10 09:45:24;;;;;;;2.37;1.30;;;;;;;24.27;53.54;100762.88;128677;1090;22332;-75
2021/07/10 09:48:09;;;;;;;3.18;1.73;;;;;;;24.57;53.28;100764.38;128640;1092;22322;-74
2021/07/10 09:50:39;;;;;;;6.10;2.23;;;;;;;25.01;52.16;100767.06;128640;1092;22343;-75
2021/07/10 09:53:25;;;;;;;4.28;1.60;;;;;;;24.98;50.17;100764.86;128625;1092;22350;-76
2021/07/10 09:56:14;;;;;;;5.23;1.73;;;;;;;24.77;50.96;100764.63;128715;1092;22341;-77
2021/07/10 09:58:43;;;;;;;2.93;1.40;;;;;;;24.70;51.30;100760.50;128670;1092;22334;-76
2021/07/10 10:01:35;;;;;;;3.45;1.48;;;;;;;24.67;51.17;100764.51;128650;1092;22357;-76
2021/07/10 10:04:31;;;;;;;2.18;1.55;;;;;;;24.49;50.68;100762.94;128760;1092;24138;-74
2021/07/10 10:07:04;;;;;;;3.45;1.35;;;;;;;24.21;50.79;100761.16;128655;1092;22346;-76
2021/07/10 10:09:33;;;;;;;3.60;2.08;;;;;;;24.36;51.91;100764.09;128645;1092;22335;-78
2021/07/10 10:12:15;;;;;;;2.35;1.40;;;;;;;24.36;50.47;100772.19;128598;1092;22765;-78
2021/07/10 10:14:53;;;;;;;4.58;2.40;;;;;;;24.27;51.00;100767.45;128692;1091;24968;-78
2021/07/10 10:17:25;;;;;;;4.43;2.15;;;;;;;24.19;50.84;100761.42;128636;1092;22331;-78
2021/07/10 10:19:55;;;;;;;2.63;1.43;;;;;;;24.20;50.39;100756.84;128707;1092;22340;-79
2021/07/10 10:27:36;;;;;;;3.70;1.85;;;;;;;23.78;51.19;100764.55;128713;1092;22331;-78
2021/07/10 10:30:06;;;;;;;4.20;1.88;;;;;;;23.70;51.27;100758.50;128619;1095;24963;-79
2021/07/10 10:32:36;;;;;;;3.13;1.60;;;;;;;23.61;51.43;100756.42;128641;1092;22336;-78
2021/07/10 10:35:06;;;;;;;5.55;1.73;;;;;;;23.57;51.78;100764.19;128648;1090;24092;-78
2021/07/10 10:37:41;;;;;;;3.20;1.70;;;;;;;23.60;51.71;100761.00;128659;1092;22331;-78
2021/07/10 10:40:37;;;;;;;5.10;1.75;;;;;;;23.61;51.46;100751.03;128727;1092;24235;-77
2021/07/10 10:43:08;;;;;;;3.25;1.45;;;;;;;23.57;51.54;100760.67;128700;1092;22315;-77
2021/07/10 10:45:40;;;;;;;3.05;1.53;;;;;;;23.51;51.40;100758.95;128721;1092;22346;-79
2021/07/10 10:48:10;;;;;;;1.78;1.58;;;;;;;23.51;51.88;100767.03;128641;1092;22356;-78
2021/07/10 10:50:41;;;;;;;2.00;1.50;;;;;;;23.64;52.06;100761.33;128624;1092;22327;-79
2021/07/10 10:53:22;;;;;;;7.80;2.38;;;;;;;23.68;51.46;100767.89;128655;1092;22828;-79
2021/07/10 10:55:51;;;;;;;5.63;2.03;;;;;;;23.65;51.44;100776.44;128708;1092;22771;-78
2021/07/10 10:58:29;;;;;;;2.93;1.60;;;;;;;23.57;51.23;100776.85;128663;1092;22315;-78
2021/07/10 11:01:03;;;;;;;2.18;1.40;;;;;;;23.48;51.30;100771.03;128659;1092;22335;-80
2021/07/10 11:03:39;;;;;;;3.88;2.30;;;;;;;23.45;51.30;100772.33;128682;1092;22623;-78
2021/07/10 11:06:31;;;;;;;3.68;1.80;;;;;;;23.42;50.99;100763.91;128680;1092;22382;-77
2021/07/10 11:09:01;;;;;;;6.00;1.50;;;;;;;23.37;50.96;100780.01;128689;1092;22334;-77
2021/07/10 11:11:37;;;;;;;3.05;1.33;;;;;;;23.32;50.84;100767.23;128635;1092;22412;-79
2021/07/10 11:14:11;;;;;;;6.08;1.68;;;;;;;23.33;51.40;100774.28;128672;1092;24466;-77
2021/07/10 11:17:05;;;;;;;2.58;1.55;;;;;;;23.41;51.69;100763.09;128615;1092;22321;-78
2021/07/10 11:19:48;;;;;;;3.43;1.60;;;;;;;23.52;50.98;100757.88;128654;1092;22336;-78
2021/07/10 11:22:57;;;;;;;2.07;1.00;;;;;;;23.52;50.67;100758.69;128612;1092;22346;-77
2021/07/10 11:25:45;;;;;;;3.65;1.68;;;;;;;23.43;50.99;100760.98;128613;1092;22335;-77
2021/07/10 11:28:21;;;;;;;2.60;1.43;;;;;;;23.43;50.92;100758.29;128683;1092;23173;-78
2021/07/10 11:30:57;;;;;;;5.80;1.70;;;;;;;23.38;51.02;100760.88;128684;1092;22430;-78
2021/07/10 11:34:11;;;;;;;4.40;1.43;;;;;;;23.44;50.85;100764.49;128610;1092;22327;-78
2021/07/10 11:36:55;;;;;;;6.40;1.80;;;;;;;23.60;51.31;100763.70;128593;1092;22326;-78
2021/07/10 11:39:38;;;;;;;3.28;1.48;;;;;;;23.70;50.99;100763.89;128602;1092;22297;-79
2021/07/10 11:42:46;;;;;;;8.35;3.00;;;;;;;23.74;50.79;100766.11;128669;1091;22369;-78
2021/07/10 11:45:26;;;;;;;3.53;1.60;;;;;;;23.70;50.47;100760.39;128263;1095;24489;-79